Flight Briefing for CPX448

Departure Arrival
Minneapolis-St Paul International/Wold-Chamberlain Airport (KMSP)
Click to view FAA NOTAMS
Salt Lake City International Airport (KSLC)
Click to view FAA NOTAMS
Departure Time Arrival Time
N/A N/A
Aircraft Distance
B757-200SF 860nm
Departure METAR Arrival METAR
KMSP 151953Z 27012KT 10SM FEW250 M11/M17 A3009 RMK AO2 SLP209 T11111172 KSLC 151954Z 18023G31KT 10SM FEW040TCU FEW055 FEW095 10/M02 A2972 RMK AO2 PK WND 16033/1930 SLP047 TCU NW AND DSNT N-NE AND SE T01001017
Suggested Route
LEINY6 LEINY RAP DDY NORDK6


View recent IFR Routes data
Notes



Charts and Procedures

Charts for KMSP
No chart available
Charts for KSLC
No chart available

Ventusky Weather